createdAt,value
2018-08-04T00:00:30.864Z,21.01
2018-08-04T00:03:00.759Z,20.95
2018-08-04T00:05:30.656Z,20.90
2018-08-04T00:08:00.470Z,20.94
2018-08-04T00:10:30.204Z,20.87
2018-08-04T00:13:00.036Z,21.21
2018-08-04T00:15:29.881Z,21.11
2018-08-04T00:17:59.654Z,21.15
2018-08-04T00:20:29.528Z,21.25
2018-08-04T00:22:59.382Z,21.53
2018-08-04T00:25:29.336Z,21.78
2018-08-04T00:27:59.041Z,21.77
2018-08-04T00:30:28.938Z,21.77
2018-08-04T00:32:58.702Z,22.10
2018-08-04T00:35:28.676Z,22.44
2018-08-04T00:37:58.475Z,22.44
2018-08-04T00:40:28.151Z,22.60
2018-08-04T00:42:57.964Z,22.54
2018-08-04T00:45:27.722Z,22.44
2018-08-04T00:47:57.478Z,22.56
2018-08-04T00:50:27.337Z,22.41
2018-08-04T00:52:57.027Z,22.18
2018-08-04T00:55:26.920Z,21.98
2018-08-04T00:57:56.747Z,21.91
2018-08-04T01:00:26.438Z,22.18
2018-08-04T01:02:56.200Z,22.22
2018-08-04T01:05:56.867Z,22.25
2018-08-04T01:08:26.628Z,21.80
2018-08-04T01:10:56.576Z,22.03
2018-08-04T01:13:26.283Z,22.00
2018-08-04T01:15:55.966Z,22.32
2018-08-04T01:18:25.738Z,22.57
2018-08-04T01:20:55.301Z,22.39
2018-08-04T01:23:25.053Z,20.75
2018-08-04T01:25:54.834Z,22.27
2018-08-04T01:28:24.547Z,22.27
2018-08-04T01:30:54.266Z,22.44
2018-08-04T01:33:24.159Z,22.35
2018-08-04T01:35:53.906Z,21.59
2018-08-04T01:38:23.726Z,21.76
2018-08-04T01:40:53.429Z,21.87
2018-08-04T01:43:23.194Z,21.73
2018-08-04T01:45:52.952Z,22.22
2018-08-04T01:48:22.860Z,22.48
2018-08-04T01:50:52.612Z,22.71
2018-08-04T01:53:22.379Z,22.75
2018-08-04T01:55:52.210Z,22.67
2018-08-04T01:58:22.117Z,22.84
2018-08-04T02:00:51.958Z,22.85
2018-08-04T02:03:21.815Z,23.04
2018-08-04T02:05:51.693Z,22.81
2018-08-04T02:08:21.545Z,22.92
2018-08-04T02:10:51.293Z,22.94
2018-08-04T02:13:21.227Z,22.88
2018-08-04T02:15:50.959Z,22.94
2018-08-04T02:18:20.789Z,22.67
2018-08-04T02:20:50.482Z,22.50
2018-08-04T02:23:20.186Z,22.37
2018-08-04T02:25:50.007Z,22.04
2018-08-04T02:28:20.838Z,22.06
2018-08-04T02:30:50.682Z,22.35
2018-08-04T02:33:20.562Z,22.63
2018-08-04T02:35:50.907Z,22.89
2018-08-04T02:38:21.077Z,22.99
2018-08-04T02:40:50.784Z,22.96
2018-08-04T02:43:20.617Z,23.11
2018-08-04T02:45:50.362Z,22.76
2018-08-04T02:48:20.113Z,22.83
2018-08-04T02:50:49.924Z,22.28
2018-08-04T02:53:19.696Z,22.51
2018-08-04T02:55:49.472Z,22.34
2018-08-04T02:58:19.169Z,22.36
2018-08-04T03:00:48.902Z,22.69
2018-08-04T03:03:18.813Z,22.91
2018-08-04T03:05:48.414Z,22.98
2018-08-04T03:08:18.092Z,22.91
2018-08-04T03:10:47.937Z,22.93
2018-08-04T03:13:17.778Z,23.07
2018-08-04T03:15:47.583Z,23.01
2018-08-04T03:18:17.332Z,22.34
2018-08-04T03:20:47.155Z,22.70
2018-08-04T03:23:16.981Z,22.71
2018-08-04T03:25:46.869Z,22.72
2018-08-04T03:28:16.544Z,22.89
2018-08-04T03:30:46.294Z,22.95
2018-08-04T03:33:16.152Z,23.07
2018-08-04T03:35:46.479Z,23.03
2018-08-04T03:38:16.962Z,23.15
2018-08-04T03:40:47.679Z,23.09
2018-08-04T03:43:18.231Z,23.12
2018-08-04T03:45:49.399Z,23.11
2018-08-04T03:48:19.945Z,23.17
2018-08-04T03:50:50.055Z,22.99
2018-08-04T03:53:20.466Z,22.57
2018-08-04T03:55:51.222Z,22.49
2018-08-04T03:58:21.497Z,22.47
2018-08-04T04:00:52.051Z,21.89
2018-08-04T04:03:22.760Z,21.96
2018-08-04T04:05:53.545Z,22.57
2018-08-04T04:08:23.878Z,22.79
2018-08-04T04:10:54.173Z,22.95
2018-08-04T04:13:24.755Z,23.04
2018-08-04T04:15:55.972Z,23.09
2018-08-04T04:18:26.399Z,23.09
2018-08-04T04:20:57.153Z,23.17
2018-08-04T04:23:27.521Z,23.06
2018-08-04T04:25:58.292Z,23.06
2018-08-04T04:28:28.794Z,23.03
2018-08-04T04:30:59.330Z,23.17
2018-08-04T04:33:29.722Z,22.71
2018-08-04T04:36:00.477Z,22.67
2018-08-04T04:38:31.087Z,22.66
2018-08-04T04:41:01.778Z,22.36
2018-08-04T04:43:32.166Z,22.67
2018-08-04T04:46:06.130Z,22.77
2018-08-04T04:48:37.281Z,22.96
2018-08-04T04:51:08.037Z,23.04
2018-08-04T04:53:38.333Z,23.27
2018-08-04T04:56:09.204Z,23.46
2018-08-04T04:58:39.442Z,23.25
2018-08-04T05:01:09.869Z,22.84
2018-08-04T05:03:40.465Z,22.37
2018-08-04T05:06:11.789Z,22.22
2018-08-04T05:08:42.158Z,22.56
2018-08-04T05:11:12.455Z,22.43
2018-08-04T05:13:43.222Z,22.63
2018-08-04T05:16:14.166Z,23.16
2018-08-04T05:18:44.554Z,23.42
2018-08-04T05:21:14.931Z,23.65
2018-08-04T05:23:45.701Z,23.90
2018-08-04T05:26:16.686Z,23.84
2018-08-04T05:28:47.018Z,24.15
2018-08-04T05:31:17.232Z,24.32
2018-08-04T05:33:47.663Z,24.09
2018-08-04T05:36:18.393Z,24.33
2018-08-04T05:38:48.551Z,24.41
2018-08-04T05:41:18.777Z,24.54
2018-08-04T05:43:49.367Z,24.70
2018-08-04T05:46:24.232Z,24.66
2018-08-04T05:48:56.701Z,24.66
2018-08-04T05:51:27.350Z,24.83
2018-08-04T05:53:57.752Z,25.18
2018-08-04T05:56:29.278Z,25.64
2018-08-04T05:58:59.927Z,25.81
2018-08-04T06:01:29.770Z,25.28
2018-08-04T06:03:59.514Z,25.59
2018-08-04T06:06:30.138Z,25.96
2018-08-04T06:08:59.906Z,25.64
2018-08-04T06:11:29.610Z,25.69
2018-08-04T06:13:59.332Z,26.10
2018-08-04T06:16:28.950Z,25.92
2018-08-04T06:18:58.868Z,26.16
2018-08-04T06:21:28.641Z,26.43
2018-08-04T06:23:58.334Z,26.53
2018-08-04T06:26:28.126Z,26.71
2018-08-04T06:28:57.853Z,26.65
2018-08-04T06:31:27.697Z,27.03
2018-08-04T06:33:57.533Z,27.21
2018-08-04T06:36:27.457Z,26.57
2018-08-04T06:38:57.206Z,27.23
2018-08-04T06:41:27.702Z,27.64
2018-08-04T06:43:57.738Z,28.26
2018-08-04T06:46:28.054Z,28.02
2018-08-04T06:48:58.445Z,28.02
2018-08-04T06:51:28.841Z,28.31
2018-08-04T06:53:59.261Z,28.69
2018-08-04T06:56:30.488Z,28.72
2018-08-04T06:59:00.868Z,28.15
2018-08-04T07:01:31.126Z,27.70
2018-08-04T07:04:01.440Z,27.64
2018-08-04T07:06:33.347Z,27.69
2018-08-04T07:09:03.811Z,27.54
2018-08-04T07:11:34.224Z,27.68
2018-08-04T07:14:05.197Z,27.43
2018-08-04T07:16:36.949Z,26.72
2018-08-04T07:19:07.411Z,27.03
2018-08-04T07:21:37.584Z,27.43
2018-08-04T07:24:07.861Z,27.87
2018-08-04T07:26:39.285Z,27.79
2018-08-04T07:29:09.085Z,29.05
2018-08-04T07:31:38.850Z,29.28
2018-08-04T07:34:08.645Z,28.79
2018-08-04T07:36:38.989Z,29.02
2018-08-04T07:39:10.676Z,28.72
2018-08-04T07:41:41.445Z,28.41
2018-08-04T07:44:12.157Z,29.48
2018-08-04T07:46:45.886Z,28.85
2018-08-04T07:49:16.670Z,29.68
2018-08-04T07:51:47.389Z,30.15
2018-08-04T07:54:18.179Z,29.85
2018-08-04T07:56:49.509Z,29.79
2018-08-04T07:59:20.070Z,29.62
2018-08-04T08:01:50.485Z,29.20
2018-08-04T08:04:20.784Z,29.83
2018-08-04T08:06:51.800Z,29.38
2018-08-04T08:09:22.005Z,30.07
2018-08-04T08:11:52.547Z,30.70
2018-08-04T08:14:23.206Z,30.29
2018-08-04T08:16:53.993Z,30.56
2018-08-04T08:19:24.331Z,30.35
2018-08-04T08:21:54.350Z,31.39
2018-08-04T08:24:24.376Z,31.33
2018-08-04T08:26:55.528Z,30.89
2018-08-04T08:29:25.267Z,30.85
2018-08-04T08:31:55.140Z,31.03
2018-08-04T08:34:25.590Z,31.52
2018-08-04T08:36:56.713Z,31.72
2018-08-04T08:39:27.349Z,32.34
2018-08-04T08:41:58.040Z,32.18
2018-08-04T08:44:28.372Z,32.56
2018-08-04T08:46:59.213Z,32.94
2018-08-04T08:49:29.740Z,32.64
2018-08-04T08:52:00.143Z,32.26
2018-08-04T08:54:30.735Z,32.73
2018-08-04T08:57:01.657Z,33.57
2018-08-04T08:59:31.769Z,33.33
2018-08-04T09:02:01.731Z,32.82
2018-08-04T09:04:32.034Z,34.49
2018-08-04T09:07:03.600Z,35.06
2018-08-04T09:09:34.419Z,34.49
2018-08-04T09:12:05.217Z,34.27
2018-08-04T09:14:35.937Z,34.02
2018-08-04T09:17:06.723Z,33.86
2018-08-04T09:19:36.840Z,34.84
2018-08-04T09:22:07.174Z,35.54
2018-08-04T09:24:37.412Z,36.24
2018-08-04T09:27:08.989Z,36.17
2018-08-04T09:29:39.355Z,35.80
2018-08-04T09:32:09.495Z,34.83
2018-08-04T09:34:40.212Z,34.40
2018-08-04T09:37:11.487Z,33.80
2018-08-04T09:39:42.041Z,34.39
2018-08-04T09:42:12.063Z,33.02
2018-08-04T09:44:41.895Z,32.48
2018-08-04T09:47:12.470Z,33.82
2018-08-04T09:49:42.320Z,34.42
2018-08-04T09:52:12.152Z,35.23
2018-08-04T09:54:41.922Z,34.64
2018-08-04T09:57:11.651Z,35.51
2018-08-04T09:59:41.505Z,35.42
2018-08-04T10:02:12.042Z,36.11
2018-08-04T10:04:42.194Z,37.08
2018-08-04T10:07:13.290Z,35.65
2018-08-04T10:09:43.118Z,36.29
2018-08-04T10:12:12.870Z,35.22
2018-08-04T10:14:42.730Z,34.41
2018-08-04T10:17:12.628Z,33.75
2018-08-04T10:19:43.024Z,32.90
2018-08-04T10:22:13.554Z,33.04
2018-08-04T10:24:43.423Z,34.04
2018-08-04T10:27:13.725Z,32.96
2018-08-04T10:29:43.745Z,33.95
2018-08-04T10:32:13.695Z,34.08
2018-08-04T10:34:43.330Z,34.36
2018-08-04T10:37:12.904Z,34.70
2018-08-04T10:39:42.579Z,34.92
2018-08-04T10:42:12.326Z,35.14
2018-08-04T10:44:42.385Z,36.19
2018-08-04T10:47:12.247Z,37.45
2018-08-04T10:49:42.216Z,37.33
2018-08-04T10:52:11.983Z,35.61
2018-08-04T10:54:41.828Z,35.29
2018-08-04T10:57:11.603Z,35.54
2018-08-04T10:59:41.350Z,35.90
2018-08-04T11:02:11.119Z,36.17
2018-08-04T11:04:40.781Z,36.31
2018-08-04T11:07:10.505Z,37.35
2018-08-04T11:09:40.354Z,37.49
2018-08-04T11:12:10.311Z,36.65
2018-08-04T11:14:40.234Z,36.36
2018-08-04T11:17:10.061Z,34.98
2018-08-04T11:19:39.985Z,34.43
2018-08-04T11:22:09.736Z,33.61
2018-08-04T11:24:39.798Z,34.02
2018-08-04T11:27:10.327Z,34.75
2018-08-04T11:29:40.911Z,35.34
2018-08-04T11:32:11.244Z,35.98
2018-08-04T11:34:41.574Z,37.08
2018-08-04T11:37:13.155Z,36.86
2018-08-04T11:39:43.278Z,37.49
2018-08-04T11:42:13.746Z,36.86
2018-08-04T11:44:44.245Z,34.90
2018-08-04T11:47:14.960Z,36.75
2018-08-04T11:49:45.309Z,38.35
2018-08-04T11:52:15.825Z,37.62
2018-08-04T11:54:46.304Z,36.52
2018-08-04T11:57:16.630Z,37.07
2018-08-04T11:59:47.165Z,37.66
2018-08-04T12:02:17.887Z,37.77
2018-08-04T12:04:48.278Z,37.35
2018-08-04T12:07:19.890Z,37.62
2018-08-04T12:09:50.128Z,37.43
2018-08-04T12:12:20.743Z,38.55
2018-08-04T12:14:51.090Z,36.73
2018-08-04T12:17:22.105Z,37.13
2018-08-04T12:19:52.618Z,36.53
2018-08-04T12:22:23.254Z,36.35
2018-08-04T12:24:53.596Z,35.75
2018-08-04T12:27:24.471Z,36.88
2018-08-04T12:29:55.181Z,35.89
2018-08-04T12:32:25.197Z,34.68
2018-08-04T12:34:55.671Z,34.13
2018-08-04T12:37:26.428Z,33.52
2018-08-04T12:39:56.729Z,33.38
2018-08-04T12:42:27.564Z,33.42
2018-08-04T12:44:58.352Z,33.16
2018-08-04T12:47:29.175Z,33.66
2018-08-04T12:50:00.146Z,35.20
2018-08-04T12:52:30.699Z,36.59
2018-08-04T12:55:00.976Z,35.70
2018-08-04T12:57:31.649Z,35.61
2018-08-04T13:00:02.422Z,34.41
2018-08-04T13:02:33.058Z,34.24
2018-08-04T13:05:03.225Z,33.73
2018-08-04T13:07:34.012Z,33.65
2018-08-04T13:10:04.577Z,34.17
2018-08-04T13:12:35.070Z,35.17
2018-08-04T13:15:05.823Z,34.92
2018-08-04T13:17:37.014Z,35.24
2018-08-04T13:20:07.318Z,34.69
2018-08-04T13:22:37.802Z,34.69
2018-08-04T13:25:08.230Z,35.46
2018-08-04T13:27:39.667Z,34.11
2018-08-04T13:30:10.174Z,33.62
2018-08-04T13:32:40.728Z,32.41
2018-08-04T13:35:11.133Z,32.95
2018-08-04T13:37:41.629Z,32.87
2018-08-04T13:40:12.053Z,32.26
2018-08-04T13:42:42.446Z,32.08
2018-08-04T13:45:13.284Z,32.94
2018-08-04T13:47:44.093Z,34.06
2018-08-04T13:50:14.641Z,33.53
2018-08-04T13:52:45.109Z,32.55
2018-08-04T13:55:15.744Z,33.84
2018-08-04T13:57:46.860Z,33.27
2018-08-04T14:00:17.317Z,32.23
2018-08-04T14:02:47.671Z,32.33
2018-08-04T14:05:18.374Z,32.71
2018-08-04T14:07:49.332Z,32.50
2018-08-04T14:10:19.872Z,32.67
2018-08-04T14:12:50.330Z,32.44
2018-08-04T14:15:20.496Z,31.92
2018-08-04T14:17:51.858Z,31.92
2018-08-04T14:20:22.067Z,31.69
2018-08-04T14:22:52.582Z,31.49
2018-08-04T14:25:22.988Z,31.96
2018-08-04T14:27:53.704Z,32.15
2018-08-04T14:30:24.102Z,32.41
2018-08-04T14:32:54.333Z,32.55
2018-08-04T14:35:24.991Z,33.17
2018-08-04T14:37:56.051Z,32.44
2018-08-04T14:40:26.111Z,32.28
2018-08-04T14:42:56.533Z,32.59
2018-08-04T14:45:27.357Z,32.95
2018-08-04T14:47:58.794Z,32.26
2018-08-04T14:50:29.309Z,33.32
2018-08-04T14:52:59.367Z,31.71
2018-08-04T14:55:29.890Z,31.80
2018-08-04T14:58:01.182Z,31.54
2018-08-04T15:00:31.575Z,31.30
2018-08-04T15:03:01.666Z,30.98
2018-08-04T15:05:32.200Z,31.16
2018-08-04T15:08:03.038Z,30.96
2018-08-04T15:10:33.432Z,30.54
2018-08-04T15:13:05.037Z,30.66
2018-08-04T15:15:35.400Z,31.11
2018-08-04T15:18:06.661Z,30.78
2018-08-04T15:20:37.080Z,30.97
2018-08-04T15:23:07.410Z,31.31
2018-08-04T15:25:38.170Z,31.63
2018-08-04T15:28:09.505Z,31.45
2018-08-04T15:30:39.853Z,31.43
2018-08-04T15:33:10.555Z,31.31
2018-08-04T15:35:41.106Z,30.80
2018-08-04T15:38:13.103Z,30.65
2018-08-04T15:40:43.670Z,31.14
2018-08-04T15:43:14.236Z,31.05
2018-08-04T15:45:44.987Z,31.31
2018-08-04T15:48:16.553Z,31.01
2018-08-04T15:50:47.065Z,30.27
2018-08-04T15:53:17.234Z,30.13
2018-08-04T15:55:47.673Z,29.67
2018-08-04T15:58:18.081Z,29.84
2018-08-04T16:00:48.614Z,29.97
2018-08-04T16:03:19.237Z,30.20
2018-08-04T16:05:49.958Z,30.21
2018-08-04T16:08:20.699Z,29.93
2018-08-04T16:10:50.986Z,29.61
2018-08-04T16:13:21.245Z,29.84
2018-08-04T16:15:51.700Z,29.78
2018-08-04T16:18:23.170Z,30.10
2018-08-04T16:20:53.825Z,29.73
2018-08-04T16:23:24.303Z,30.06
2018-08-04T16:25:54.843Z,29.95
2018-08-04T16:28:26.191Z,29.89
2018-08-04T16:30:56.524Z,29.75
2018-08-04T16:33:26.547Z,29.44
2018-08-04T16:35:56.965Z,29.44
2018-08-04T16:38:27.871Z,29.27
2018-08-04T16:40:58.449Z,29.19
2018-08-04T16:43:29.023Z,29.01
2018-08-04T16:45:59.752Z,28.90
2018-08-04T16:48:31.137Z,28.64
2018-08-04T16:51:01.661Z,29.00
2018-08-04T16:53:32.394Z,28.89
2018-08-04T16:56:02.686Z,28.76
2018-08-04T16:58:33.971Z,29.02
2018-08-04T17:01:04.319Z,28.28
2018-08-04T17:03:35.091Z,27.95
2018-08-04T17:06:06.199Z,27.86
2018-08-04T17:08:36.892Z,28.01
2018-08-04T17:11:07.575Z,28.07
2018-08-04T17:13:38.174Z,27.68
2018-08-04T17:16:08.691Z,27.50
2018-08-04T17:18:39.796Z,27.25
2018-08-04T17:21:10.393Z,26.91
2018-08-04T17:23:40.871Z,27.07
2018-08-04T17:26:11.286Z,27.29
2018-08-04T17:28:42.508Z,26.88
2018-08-04T17:31:12.949Z,26.52
2018-08-04T17:33:43.641Z,26.57
2018-08-04T17:36:13.846Z,26.28
2018-08-04T17:38:45.091Z,26.28
2018-08-04T17:41:15.685Z,26.08
2018-08-04T17:43:46.452Z,26.25
2018-08-04T17:46:17.314Z,26.18
2018-08-04T17:48:48.481Z,26.42
2018-08-04T17:51:19.213Z,26.34
2018-08-04T17:53:49.482Z,26.09
2018-08-04T17:56:20.009Z,26.06
2018-08-04T17:58:52.177Z,26.06
2018-08-04T18:01:22.622Z,26.06
2018-08-04T18:03:53.081Z,25.75
2018-08-04T18:06:23.361Z,25.57
2018-08-04T18:08:54.506Z,25.48
2018-08-04T18:11:24.950Z,25.22
2018-08-04T18:13:55.422Z,25.26
2018-08-04T18:16:25.905Z,24.85
2018-08-04T18:18:57.409Z,24.59
2018-08-04T18:21:27.633Z,24.70
2018-08-04T18:23:58.545Z,24.97
2018-08-04T18:26:28.995Z,25.12
2018-08-04T18:29:00.184Z,24.85
2018-08-04T18:31:30.657Z,24.66
2018-08-04T18:34:01.275Z,24.60
2018-08-04T18:36:31.635Z,24.41
2018-08-04T18:39:02.431Z,24.33
2018-08-04T18:41:32.905Z,24.26
2018-08-04T18:44:03.166Z,24.44
2018-08-04T18:46:34.154Z,24.91
2018-08-04T18:49:04.855Z,25.14
2018-08-04T18:51:35.334Z,25.36
2018-08-04T18:54:05.320Z,25.55
2018-08-04T18:56:35.582Z,25.03
2018-08-04T18:59:06.072Z,24.95
2018-08-04T19:01:36.401Z,25.19
2018-08-04T19:04:06.812Z,24.71
2018-08-04T19:06:37.152Z,24.73
2018-08-04T19:09:10.779Z,24.26
2018-08-04T19:11:40.976Z,24.00
2018-08-04T19:14:12.190Z,23.91
2018-08-04T19:16:42.997Z,23.87
2018-08-04T19:19:13.796Z,24.28
2018-08-04T19:21:44.378Z,24.07
2018-08-04T19:24:15.052Z,24.61
2018-08-04T19:26:45.434Z,24.77
2018-08-04T19:29:16.102Z,24.80
2018-08-04T19:31:46.510Z,24.50
2018-08-04T19:34:17.052Z,24.47
2018-08-04T19:36:47.418Z,23.94
2018-08-04T19:39:17.392Z,23.63
2018-08-04T19:41:47.190Z,23.62
2018-08-04T19:44:17.155Z,23.65
2018-08-04T19:46:47.703Z,23.48
2018-08-04T19:49:18.251Z,23.88
2018-08-04T19:51:48.915Z,24.10
2018-08-04T19:54:19.212Z,24.25
2018-08-04T19:56:49.597Z,24.30
2018-08-04T19:59:20.985Z,24.21
2018-08-04T20:01:51.421Z,24.17
2018-08-04T20:04:21.758Z,23.85
2018-08-04T20:06:51.780Z,24.12
2018-08-04T20:09:23.331Z,24.25
2018-08-04T20:11:53.740Z,24.25
2018-08-04T20:14:23.971Z,24.19
2018-08-04T20:16:54.488Z,24.20
2018-08-04T20:19:25.543Z,24.16
2018-08-04T20:21:56.250Z,23.89
2018-08-04T20:24:26.880Z,23.75
2018-08-04T20:26:57.364Z,23.88
2018-08-04T20:29:28.197Z,23.87
2018-08-04T20:31:58.460Z,23.83
2018-08-04T20:34:28.883Z,23.87
2018-08-04T20:36:59.233Z,23.84
2018-08-04T20:39:30.103Z,23.81
2018-08-04T20:42:00.513Z,23.59
2018-08-04T20:44:31.092Z,23.45
2018-08-04T20:47:01.750Z,23.61
2018-08-04T20:49:32.986Z,23.65
2018-08-04T20:52:03.230Z,23.68
2018-08-04T20:54:33.465Z,23.61
2018-08-04T20:57:03.579Z,22.94
2018-08-04T20:59:35.726Z,22.39
2018-08-04T21:02:06.573Z,22.88
2018-08-04T21:04:37.562Z,22.66
2018-08-04T21:07:08.048Z,22.83
2018-08-04T21:09:39.446Z,22.66
2018-08-04T21:12:09.868Z,22.27
2018-08-04T21:14:40.300Z,22.50
2018-08-04T21:17:10.634Z,22.97
2018-08-04T21:19:41.978Z,23.26
2018-08-04T21:22:12.346Z,22.77
2018-08-04T21:24:42.785Z,22.34
2018-08-04T21:27:13.093Z,22.57
2018-08-04T21:29:44.124Z,22.75
2018-08-04T21:32:14.407Z,22.93
2018-08-04T21:34:44.629Z,22.99
2018-08-04T21:37:15.114Z,23.10
2018-08-04T21:39:46.537Z,23.10
2018-08-04T21:42:17.175Z,22.54
2018-08-04T21:44:47.805Z,21.85
2018-08-04T21:47:18.756Z,21.42
2018-08-04T21:49:50.357Z,21.22
2018-08-04T21:52:21.064Z,21.25
2018-08-04T21:54:51.719Z,21.23
2018-08-04T21:57:22.342Z,21.02
2018-08-04T21:59:53.160Z,21.03
2018-08-04T22:02:23.826Z,21.27
2018-08-04T22:04:54.311Z,21.21
2018-08-04T22:07:45.473Z,21.26
2018-08-04T22:10:19.874Z,21.35
2018-08-04T22:12:49.963Z,21.31
2018-08-04T22:15:20.170Z,21.42
2018-08-04T22:17:50.965Z,21.31
2018-08-04T22:20:22.637Z,21.36
2018-08-04T22:22:53.589Z,21.32
2018-08-04T22:25:27.826Z,21.55
2018-08-04T22:27:58.849Z,21.82
2018-08-04T22:30:30.226Z,22.11
2018-08-04T22:33:00.599Z,21.61
2018-08-04T22:35:31.123Z,21.28
2018-08-04T22:38:02.059Z,21.18
2018-08-04T22:40:33.282Z,21.12
2018-08-04T22:43:04.298Z,21.13
2018-08-04T22:46:14.008Z,21.24
2018-08-04T22:48:46.334Z,21.27
2018-08-04T22:51:20.888Z,21.58
2018-08-04T22:53:50.651Z,22.11
2018-08-04T22:56:20.531Z,22.39
2018-08-04T22:58:51.872Z,22.49
2018-08-04T23:01:22.250Z,22.44
2018-08-04T23:03:52.110Z,22.46
2018-08-04T23:06:22.699Z,22.31
2018-08-04T23:08:53.955Z,21.78
2018-08-04T23:11:24.489Z,21.45
2018-08-04T23:13:55.112Z,21.07
2018-08-04T23:16:25.656Z,21.30
2018-08-04T23:18:56.959Z,22.00
2018-08-04T23:21:27.850Z,22.00
2018-08-04T23:23:58.583Z,22.23
2018-08-04T23:26:29.317Z,22.20
2018-08-04T23:29:01.276Z,21.86
2018-08-04T23:31:31.640Z,21.79
2018-08-04T23:34:02.083Z,21.39
2018-08-04T23:36:32.431Z,21.42
2018-08-04T23:39:03.255Z,21.58
2018-08-04T23:41:33.470Z,21.58
2018-08-04T23:44:03.812Z,21.79
2018-08-04T23:46:34.170Z,21.67
2018-08-04T23:49:05.538Z,21.88
2018-08-04T23:51:36.397Z,21.92
2018-08-04T23:54:06.992Z,21.78
2018-08-04T23:56:37.499Z,21.66
2018-08-04T23:59:08.234Z,21.70
